createdAt,value
2018-02-13T00:00:35.630Z,-0.80
2018-02-13T00:03:03.107Z,-0.80
2018-02-13T00:05:30.591Z,-0.90
2018-02-13T00:07:58.833Z,-0.90
2018-02-13T00:10:26.738Z,-0.90
2018-02-13T00:12:54.215Z,-0.90
2018-02-13T00:15:21.689Z,-0.80
2018-02-13T00:17:49.267Z,-0.80
2018-02-13T00:20:16.742Z,-0.70
2018-02-13T00:22:49.963Z,-0.60
2018-02-13T00:25:18.256Z,-0.60
2018-02-13T00:27:45.791Z,-0.60
2018-02-13T00:30:13.284Z,-0.60
2018-02-13T00:32:41.555Z,-0.50
2018-02-13T00:35:09.057Z,-0.50
2018-02-13T00:37:36.589Z,-0.50
2018-02-13T00:40:04.067Z,-0.50
2018-02-13T00:42:32.318Z,-0.50
2018-02-13T00:44:59.790Z,-0.50
2018-02-13T00:47:27.280Z,-0.50
2018-02-13T00:49:54.750Z,-0.50
2018-02-13T00:52:22.343Z,-0.50
2018-02-13T00:54:49.840Z,-0.50
2018-02-13T00:57:17.306Z,-0.50
2018-02-13T00:59:44.846Z,-0.50
2018-02-13T01:02:12.318Z,-0.50
2018-02-13T01:04:39.790Z,-0.50
2018-02-13T01:07:07.274Z,-0.50
2018-02-13T01:09:35.514Z,-0.50
2018-02-13T01:12:03.024Z,-0.50
2018-02-13T01:14:30.534Z,-0.50
2018-02-13T01:16:58.812Z,-0.50
2018-02-13T01:19:26.294Z,-0.50
2018-02-13T01:21:53.774Z,-0.50
2018-02-13T01:24:21.262Z,-0.60
2018-02-13T01:26:48.758Z,-0.60
2018-02-13T01:29:16.327Z,-0.60
2018-02-13T01:31:43.813Z,-0.60
2018-02-13T01:34:12.058Z,-0.60
2018-02-13T01:36:39.562Z,-0.60
2018-02-13T01:39:07.130Z,-0.60
2018-02-13T01:41:34.602Z,-0.50
2018-02-13T01:44:02.171Z,-0.60
2018-02-13T01:46:29.646Z,-0.50
2018-02-13T01:48:57.419Z,-0.50
2018-02-13T01:51:24.886Z,-0.50
2018-02-13T01:53:52.364Z,-0.50
2018-02-13T01:56:19.927Z,-0.50
2018-02-13T01:58:47.394Z,-0.50
2018-02-13T02:01:14.890Z,-0.50
2018-02-13T02:03:43.126Z,-0.50
2018-02-13T02:06:10.622Z,-0.60
2018-02-13T02:08:38.133Z,-0.50
2018-02-13T02:11:05.671Z,-0.60
2018-02-13T02:13:33.446Z,-0.60
2018-02-13T02:16:01.026Z,-0.60
2018-02-13T02:18:28.594Z,-0.60
2018-02-13T02:20:56.166Z,-0.60
2018-02-13T02:23:23.634Z,-0.60
2018-02-13T02:25:51.418Z,-0.60
2018-02-13T02:28:18.890Z,-0.60
2018-02-13T02:30:46.358Z,-0.60
2018-02-13T02:33:13.922Z,-0.60
2018-02-13T02:35:41.397Z,-0.60
2018-02-13T02:38:09.668Z,-0.60
2018-02-13T02:40:37.162Z,-0.60
2018-02-13T02:43:06.553Z,-0.60
2018-02-13T02:45:34.043Z,-0.60
2018-02-13T02:48:01.512Z,-0.60
2018-02-13T02:50:29.011Z,-0.60
2018-02-13T02:52:56.488Z,-0.60
2018-02-13T02:55:24.017Z,-0.60
2018-02-13T02:57:51.595Z,-0.60
2018-02-13T03:00:19.066Z,-0.60
2018-02-13T03:02:46.773Z,-0.60
2018-02-13T03:05:15.014Z,-0.60
2018-02-13T03:07:42.486Z,-0.60
2018-02-13T03:10:09.966Z,-0.60
2018-02-13T03:12:37.434Z,-0.60
2018-02-13T03:15:04.923Z,-0.60
2018-02-13T03:17:33.169Z,-0.60
2018-02-13T03:20:00.653Z,-0.60
2018-02-13T03:22:28.234Z,-0.60
2018-02-13T03:24:55.714Z,-0.60
2018-02-13T03:27:23.486Z,-0.60
2018-02-13T03:29:50.958Z,-0.60
2018-02-13T03:32:19.203Z,-0.60
2018-02-13T03:34:46.691Z,-0.60
2018-02-13T03:37:14.174Z,-0.60
2018-02-13T03:39:42.083Z,-0.60
2018-02-13T03:42:10.322Z,-0.70
2018-02-13T03:44:37.786Z,-0.70
2018-02-13T03:47:05.270Z,-0.70
2018-02-13T03:49:32.742Z,-0.70
2018-02-13T03:52:00.501Z,-0.70
2018-02-13T03:54:28.011Z,-0.70
2018-02-13T03:56:55.578Z,-0.70
2018-02-13T03:59:23.064Z,-0.70
2018-02-13T04:01:51.302Z,-0.70
2018-02-13T04:04:19.020Z,-0.70
2018-02-13T04:06:46.612Z,-0.70
2018-02-13T04:09:14.842Z,-0.70
2018-02-13T04:11:42.334Z,-0.70
2018-02-13T04:14:09.803Z,-0.70
2018-02-13T04:16:37.555Z,-0.70
2018-02-13T04:19:05.026Z,-0.70
2018-02-13T04:21:32.503Z,-0.70
2018-02-13T04:24:00.008Z,-0.70
2018-02-13T04:26:28.737Z,-0.60
2018-02-13T04:28:56.374Z,-0.70
2018-02-13T04:31:23.851Z,-0.70
2018-02-13T04:33:51.336Z,-0.70
2018-02-13T04:36:19.588Z,-0.70
2018-02-13T04:38:47.062Z,-0.70
2018-02-13T04:41:14.554Z,-0.70
2018-02-13T04:43:42.023Z,-0.70
2018-02-13T04:46:09.495Z,-0.70
2018-02-13T04:48:37.770Z,-0.70
2018-02-13T04:51:05.246Z,-0.70
2018-02-13T04:53:32.818Z,-0.70
2018-02-13T04:56:00.295Z,-0.60
2018-02-13T04:58:28.538Z,-0.70
2018-02-13T05:00:56.036Z,-0.70
2018-02-13T05:03:23.610Z,-0.70
2018-02-13T05:05:51.179Z,-0.70
2018-02-13T05:08:18.650Z,-0.80
2018-02-13T05:10:46.123Z,-0.80
2018-02-13T05:13:13.606Z,-0.80
2018-02-13T05:15:41.086Z,-0.70
2018-02-13T05:18:09.357Z,-0.70
2018-02-13T05:20:36.931Z,-0.80
2018-02-13T05:23:04.500Z,-0.60
2018-02-13T05:25:31.987Z,-0.40
2018-02-13T05:28:00.222Z,-0.40
2018-02-13T05:30:27.743Z,-0.40
2018-02-13T05:32:56.010Z,-0.60
2018-02-13T05:35:23.484Z,-0.60
2018-02-13T05:37:50.973Z,-0.60
2018-02-13T05:40:19.214Z,-0.60
2018-02-13T05:42:46.702Z,-0.60
2018-02-13T05:45:14.219Z,-0.60
2018-02-13T05:47:42.478Z,-0.70
2018-02-13T05:50:10.047Z,-0.70
2018-02-13T05:52:37.614Z,-0.70
2018-02-13T05:55:05.115Z,-0.70
2018-02-13T05:57:33.355Z,-0.80
2018-02-13T06:00:00.826Z,-0.80
2018-02-13T06:02:28.307Z,-0.80
2018-02-13T06:04:55.787Z,-0.80
2018-02-13T06:07:24.076Z,-0.80
2018-02-13T06:09:51.580Z,-0.80
2018-02-13T06:12:19.153Z,-0.70
2018-02-13T06:14:47.395Z,-0.80
2018-02-13T06:17:14.890Z,-0.80
2018-02-13T06:19:43.165Z,-0.80
2018-02-13T06:22:10.742Z,-0.80
2018-02-13T06:24:38.216Z,-0.80
2018-02-13T06:27:05.816Z,-0.80
2018-02-13T06:29:34.054Z,-0.90
2018-02-13T06:32:01.958Z,-0.90
2018-02-13T06:34:29.446Z,-0.80
2018-02-13T06:36:56.930Z,-0.30
2018-02-13T06:40:48.140Z,0.20
2018-02-13T06:43:16.387Z,0.40
2018-02-13T06:45:43.863Z,0.30
2018-02-13T06:48:11.369Z,0.10
2018-02-13T06:50:38.845Z,-0.10
2018-02-13T06:53:07.114Z,-0.40
2018-02-13T06:55:34.605Z,-0.40
2018-02-13T06:58:02.858Z,-0.60
2018-02-13T07:00:30.334Z,-0.60
2018-02-13T07:02:57.814Z,-0.60
2018-02-13T07:05:25.313Z,-0.60
2018-02-13T07:07:53.550Z,-0.60
2018-02-13T07:10:21.079Z,-0.60
2018-02-13T07:12:48.559Z,-0.60
2018-02-13T07:15:16.051Z,-0.60
2018-02-13T07:17:43.532Z,-0.50
2018-02-13T07:20:11.018Z,-0.60
2018-02-13T07:22:38.490Z,-0.50
2018-02-13T07:25:06.076Z,-0.50
2018-02-13T07:27:33.643Z,-0.50
2018-02-13T07:30:01.236Z,-0.40
2018-02-13T07:32:29.536Z,-0.40
2018-02-13T07:34:57.026Z,-0.40
2018-02-13T07:37:24.502Z,-0.40
2018-02-13T07:39:51.983Z,-0.40
2018-02-13T07:42:19.517Z,-0.30
2018-02-13T07:44:47.059Z,-0.30
2018-02-13T07:47:14.559Z,-0.30
2018-02-13T07:49:42.847Z,-0.20
2018-02-13T07:52:10.342Z,-0.20
2018-02-13T07:54:37.824Z,-0.20
2018-02-13T07:57:05.331Z,0.00
2018-02-13T07:59:32.806Z,0.30
2018-02-13T08:02:00.294Z,0.60
2018-02-13T08:04:27.783Z,0.60
2018-02-13T08:06:55.271Z,0.70
2018-02-13T08:09:22.771Z,0.80
2018-02-13T08:11:50.264Z,0.70
2018-02-13T08:14:18.499Z,0.60
2018-02-13T08:16:45.987Z,0.60
2018-02-13T08:19:13.456Z,0.60
2018-02-13T08:21:40.926Z,0.70
2018-02-13T08:24:08.431Z,0.70
2018-02-13T08:26:36.672Z,0.80
2018-02-13T08:29:04.155Z,0.70
2018-02-13T08:31:31.680Z,0.80
2018-02-13T08:35:43.883Z,0.80
2018-02-13T08:38:11.363Z,0.90
2018-02-13T08:40:39.598Z,1.00
2018-02-13T08:43:07.080Z,1.10
2018-02-13T08:45:34.610Z,1.10
2018-02-13T08:48:02.185Z,1.20
2018-02-13T08:54:02.127Z,1.60
2018-02-13T08:56:29.602Z,2.30
2018-02-13T08:58:57.851Z,3.50
2018-02-13T09:01:25.352Z,3.50
2018-02-13T09:03:52.849Z,4.00
2018-02-13T09:06:20.391Z,4.20
2018-02-13T09:08:47.870Z,4.70
2018-02-13T09:11:16.123Z,5.40
2018-02-13T09:13:43.618Z,5.40
2018-02-13T09:16:11.122Z,5.70
2018-02-13T09:18:38.594Z,6.10
2018-02-13T09:21:06.085Z,6.50
2018-02-13T09:23:33.559Z,6.90
2018-02-13T09:26:01.048Z,7.20
2018-02-13T09:28:28.547Z,7.50
2018-02-13T09:30:56.826Z,7.50
2018-02-13T09:33:24.298Z,7.50
2018-02-13T09:35:51.786Z,7.80
2018-02-13T09:38:20.059Z,8.40
2018-02-13T09:40:47.548Z,8.40
2018-02-13T09:43:15.787Z,8.20
2018-02-13T09:45:43.321Z,8.10
2018-02-13T09:48:11.577Z,7.90
2018-02-13T09:50:39.147Z,7.80
2018-02-13T09:53:06.711Z,8.00
2018-02-13T09:55:34.225Z,8.60
2018-02-13T09:58:01.707Z,8.20
2018-02-13T10:00:29.193Z,8.20
2018-02-13T10:02:56.679Z,8.00
2018-02-13T10:05:24.163Z,7.90
2018-02-13T10:07:51.675Z,8.60
2018-02-13T10:10:19.250Z,8.80
2018-02-13T10:12:46.734Z,8.90
2018-02-13T10:15:14.206Z,9.30
2018-02-13T10:17:41.760Z,9.50
2018-02-13T10:20:09.333Z,9.40
2018-02-13T10:22:36.830Z,9.70
2018-02-13T10:25:04.375Z,9.10
2018-02-13T10:27:31.867Z,9.50
2018-02-13T10:29:59.351Z,10.10
2018-02-13T10:32:26.884Z,10.00
2018-02-13T10:34:54.363Z,10.20
2018-02-13T10:37:21.898Z,10.50
2018-02-13T10:39:49.391Z,10.80
2018-02-13T10:42:17.634Z,11.10
2018-02-13T10:44:45.223Z,11.10
2018-02-13T10:47:12.711Z,11.20
2018-02-13T10:49:40.987Z,11.70
2018-02-13T10:52:08.470Z,11.70
2018-02-13T10:54:36.743Z,11.70
2018-02-13T10:57:04.226Z,11.70
2018-02-13T10:59:32.538Z,12.10
2018-02-13T11:02:05.646Z,12.10
2018-02-13T11:04:33.139Z,12.00
2018-02-13T11:07:00.614Z,11.80
2018-02-13T11:09:28.215Z,12.00
2018-02-13T11:11:55.795Z,11.30
2018-02-13T11:14:23.267Z,11.60
2018-02-13T11:16:50.755Z,11.60
2018-02-13T11:19:18.997Z,12.20
2018-02-13T11:21:46.483Z,12.20
2018-02-13T11:24:13.967Z,12.20
2018-02-13T11:26:41.450Z,11.90
2018-02-13T11:29:09.686Z,12.30
2018-02-13T11:31:37.172Z,12.30
2018-02-13T11:34:04.646Z,11.60
2018-02-13T11:36:32.237Z,11.20
2018-02-13T11:38:59.734Z,11.20
2018-02-13T11:41:27.218Z,11.90
2018-02-13T11:43:54.739Z,12.10
2018-02-13T11:46:22.227Z,12.00
2018-02-13T11:48:50.469Z,11.70
2018-02-13T11:51:17.955Z,11.70
2018-02-13T11:53:45.440Z,11.70
2018-02-13T11:56:12.955Z,11.90
2018-02-13T11:58:40.486Z,10.40
2018-02-13T12:01:07.959Z,10.40
2018-02-13T12:03:35.460Z,10.70
2018-02-13T12:06:02.931Z,10.70
2018-02-13T12:08:30.427Z,10.90
2018-02-13T12:10:57.939Z,10.80
2018-02-13T12:13:25.419Z,11.30
2018-02-13T12:15:53.698Z,10.00
2018-02-13T12:18:21.182Z,9.90
2018-02-13T12:20:49.484Z,10.60
2018-02-13T12:23:17.057Z,10.60
2018-02-13T12:25:44.594Z,10.20
2018-02-13T12:28:12.087Z,10.00
2018-02-13T12:30:40.323Z,10.20
2018-02-13T12:33:07.798Z,10.20
2018-02-13T12:35:35.296Z,9.50
2018-02-13T12:38:02.880Z,8.80
2018-02-13T12:40:31.126Z,8.50
2018-02-13T12:42:58.618Z,8.50
2018-02-13T12:45:26.124Z,8.00
2018-02-13T12:47:54.374Z,9.00
2018-02-13T12:50:21.987Z,9.10
2018-02-13T12:52:49.526Z,9.50
2018-02-13T12:55:17.006Z,8.60
2018-02-13T12:57:44.482Z,7.90
2018-02-13T13:00:12.714Z,7.60
2018-02-13T13:02:40.199Z,7.60
2018-02-13T13:05:07.670Z,7.50
2018-02-13T13:07:35.154Z,7.90
2018-02-13T13:10:02.631Z,7.80
2018-02-13T13:12:30.256Z,7.40
2018-02-13T13:14:57.731Z,8.30
2018-02-13T13:17:25.232Z,9.70
2018-02-13T13:19:52.718Z,10.00
2018-02-13T13:22:20.195Z,10.60
2018-02-13T13:24:47.687Z,11.70
2018-02-13T13:27:15.931Z,12.00
2018-02-13T13:29:43.554Z,12.00
2018-02-13T13:32:11.090Z,10.70
2018-02-13T13:34:38.571Z,9.50
2018-02-13T13:37:06.044Z,8.80
2018-02-13T13:39:34.295Z,9.90
2018-02-13T13:42:01.826Z,9.90
2018-02-13T13:44:29.295Z,9.90
2018-02-13T13:46:56.787Z,10.20
2018-02-13T13:49:24.263Z,10.60
2018-02-13T13:51:51.786Z,11.10
2018-02-13T13:54:20.062Z,10.10
2018-02-13T13:56:47.635Z,10.10
2018-02-13T13:59:15.202Z,8.80
2018-02-13T14:01:42.672Z,8.30
2018-02-13T14:04:10.154Z,8.50
2018-02-13T14:06:38.395Z,9.00
2018-02-13T14:09:05.871Z,9.00
2018-02-13T14:11:33.356Z,8.70
2018-02-13T14:14:00.860Z,8.60
2018-02-13T14:16:29.103Z,8.20
2018-02-13T14:18:58.027Z,8.20
2018-02-13T14:21:25.524Z,8.20
2018-02-13T14:23:53.758Z,7.70
2018-02-13T14:26:21.271Z,7.70
2018-02-13T14:28:48.755Z,8.10
2018-02-13T14:31:17.003Z,7.80
2018-02-13T14:33:44.515Z,7.80
2018-02-13T14:36:12.798Z,7.40
2018-02-13T14:38:41.076Z,7.30
2018-02-13T14:41:08.643Z,7.30
2018-02-13T14:43:36.145Z,7.60
2018-02-13T14:46:04.410Z,7.30
2018-02-13T14:48:32.690Z,7.20
2018-02-13T14:51:00.268Z,7.20
2018-02-13T14:53:27.841Z,7.20
2018-02-13T14:55:55.335Z,7.00
2018-02-13T14:58:23.594Z,6.80
2018-02-13T15:00:51.082Z,6.80
2018-02-13T15:03:19.359Z,6.60
2018-02-13T15:05:46.832Z,6.60
2018-02-13T15:08:14.397Z,6.60
2018-02-13T15:10:41.863Z,6.70
2018-02-13T15:13:10.123Z,6.60
2018-02-13T15:15:37.591Z,6.60
2018-02-13T15:18:09.808Z,6.70
2018-02-13T15:20:37.279Z,6.90
2018-02-13T15:23:06.283Z,6.60
2018-02-13T15:25:33.755Z,6.50
2018-02-13T15:28:01.231Z,6.30
2018-02-13T15:30:29.483Z,6.00
2018-02-13T15:32:56.946Z,6.00
2018-02-13T15:35:24.439Z,5.90
2018-02-13T15:37:51.923Z,5.90
2018-02-13T15:40:19.491Z,5.70
2018-02-13T15:42:46.964Z,5.70
2018-02-13T15:45:14.455Z,5.60
2018-02-13T15:47:42.756Z,5.50
2018-02-13T15:50:10.238Z,5.50
2018-02-13T15:52:37.863Z,5.50
2018-02-13T15:55:05.338Z,5.40
2018-02-13T15:57:32.823Z,5.30
2018-02-13T16:00:01.065Z,5.20
2018-02-13T16:02:28.605Z,5.20
2018-02-13T16:04:56.087Z,5.10
2018-02-13T16:07:23.563Z,5.10
2018-02-13T16:09:51.046Z,5.10
2018-02-13T16:12:18.548Z,5.00
2018-02-13T16:14:46.115Z,4.90
2018-02-13T16:17:13.584Z,4.90
2018-02-13T16:19:41.067Z,4.80
2018-02-13T16:22:09.307Z,4.70
2018-02-13T16:24:36.778Z,4.70
2018-02-13T16:27:04.268Z,4.70
2018-02-13T16:29:31.791Z,4.70
2018-02-13T16:31:59.274Z,4.60
2018-02-13T16:34:26.742Z,4.50
2018-02-13T16:36:54.268Z,4.40
2018-02-13T16:39:21.838Z,4.40
2018-02-13T16:41:49.310Z,4.30
2018-02-13T16:44:17.572Z,4.20
2018-02-13T16:46:45.100Z,4.20
2018-02-13T16:49:12.640Z,4.20
2018-02-13T16:51:40.108Z,4.10
2018-02-13T16:54:07.591Z,4.10
2018-02-13T16:56:35.871Z,4.00
2018-02-13T16:59:03.449Z,4.00
2018-02-13T17:01:31.765Z,3.80
2018-02-13T17:03:59.342Z,3.80
2018-02-13T17:06:26.826Z,3.80
2018-02-13T17:08:54.343Z,3.70
2018-02-13T17:11:21.845Z,3.60
2018-02-13T17:13:49.419Z,3.50
2018-02-13T17:16:16.899Z,3.50
2018-02-13T17:18:44.368Z,3.50
2018-02-13T17:21:11.862Z,3.50
2018-02-13T17:23:39.334Z,3.50
2018-02-13T17:26:06.807Z,3.40
2018-02-13T17:28:34.286Z,3.40
2018-02-13T17:31:01.833Z,3.30
2018-02-13T17:33:30.075Z,3.20
2018-02-13T17:35:58.390Z,3.20
2018-02-13T17:38:25.959Z,3.20
2018-02-13T17:40:53.533Z,3.20
2018-02-13T17:43:21.104Z,3.10
2018-02-13T17:45:48.567Z,3.00
2018-02-13T17:48:16.835Z,2.90
2018-02-13T17:50:44.399Z,2.90
2018-02-13T17:53:12.634Z,2.90
2018-02-13T17:55:40.165Z,2.80
2018-02-13T17:58:08.526Z,2.80
2018-02-13T18:00:36.649Z,2.70
2018-02-13T18:03:04.902Z,2.70
2018-02-13T18:05:32.391Z,2.60
2018-02-13T18:07:59.858Z,2.60
2018-02-13T18:10:27.339Z,2.60
2018-02-13T18:15:11.817Z,2.60
2018-02-13T18:17:39.306Z,2.60
2018-02-13T18:20:06.788Z,2.50
2018-02-13T18:22:35.095Z,2.50
2018-02-13T18:25:02.634Z,2.50
2018-02-13T18:27:30.229Z,2.40
2018-02-13T18:29:58.470Z,2.40
2018-02-13T18:32:26.025Z,2.40
2018-02-13T18:34:54.247Z,2.40
2018-02-13T18:37:21.727Z,2.40
2018-02-13T18:39:49.332Z,2.40
2018-02-13T18:42:16.909Z,2.40
2018-02-13T18:44:44.391Z,2.30
2018-02-13T18:47:11.868Z,2.40
2018-02-13T18:49:39.358Z,2.30
2018-02-13T18:54:35.144Z,2.30
2018-02-13T18:57:02.626Z,2.30
2018-02-13T18:59:30.097Z,2.30
2018-02-13T19:01:58.350Z,2.20
2018-02-13T19:04:25.827Z,2.20
2018-02-13T19:06:53.318Z,2.40
2018-02-13T19:09:20.787Z,2.60
2018-02-13T19:11:48.288Z,2.50
2018-02-13T19:14:15.760Z,2.30
2018-02-13T19:19:10.718Z,2.20
2018-02-13T19:21:38.190Z,2.10
2018-02-13T19:24:05.678Z,2.10
2018-02-13T19:26:33.184Z,2.00
2018-02-13T19:29:00.788Z,2.00
2018-02-13T19:31:28.327Z,2.00
2018-02-13T19:33:55.810Z,2.10
2018-02-13T19:36:24.116Z,2.10
2018-02-13T19:38:51.688Z,2.00
2018-02-13T19:41:19.175Z,2.00
2018-02-13T19:43:46.651Z,2.00
2018-02-13T19:46:14.162Z,2.00
2018-02-13T19:48:41.743Z,2.00
2018-02-13T19:51:09.226Z,1.90
2018-02-13T19:53:37.476Z,1.80
2018-02-13T19:56:04.970Z,1.80
2018-02-13T19:58:32.543Z,1.80
2018-02-13T20:01:00.124Z,1.80
2018-02-13T20:03:28.504Z,1.80
2018-02-13T20:05:56.114Z,1.80
2018-02-13T20:08:23.682Z,1.80
2018-02-13T20:10:51.168Z,1.70
2018-02-13T20:13:18.640Z,1.70
2018-02-13T20:15:46.163Z,1.70
2018-02-13T20:18:13.727Z,1.70
2018-02-13T20:20:41.258Z,1.70
2018-02-13T20:23:08.723Z,1.70
2018-02-13T20:25:36.199Z,1.70
2018-02-13T20:28:03.747Z,1.70
2018-02-13T20:30:31.219Z,1.70
2018-02-13T20:32:58.711Z,1.80
2018-02-13T20:35:26.183Z,1.80
2018-02-13T20:37:53.699Z,1.80
2018-02-13T20:40:21.263Z,1.80
2018-02-13T20:42:48.735Z,1.70
2018-02-13T20:45:16.315Z,1.70
2018-02-13T20:47:43.782Z,1.70
2018-02-13T20:50:12.774Z,1.70
2018-02-13T20:52:40.259Z,1.70
2018-02-13T20:55:07.763Z,1.70
2018-02-13T20:57:35.230Z,1.70
2018-02-13T21:00:02.807Z,1.70
2018-02-13T21:02:30.306Z,1.70
2018-02-13T21:04:57.943Z,1.70
2018-02-13T21:07:25.517Z,1.80
2018-02-13T21:09:53.091Z,2.10
2018-02-13T21:12:20.587Z,2.00
2018-02-13T21:14:48.099Z,2.00
2018-02-13T21:17:15.614Z,1.90
2018-02-13T21:19:43.112Z,1.80
2018-02-13T21:22:10.579Z,1.70
2018-02-13T21:24:38.082Z,1.70
2018-02-13T21:27:05.581Z,1.70
2018-02-13T21:29:33.227Z,1.60
2018-02-13T21:32:00.706Z,1.60
2018-02-13T21:34:28.938Z,1.60
2018-02-13T21:36:56.423Z,1.50
2018-02-13T21:39:23.923Z,1.50
2018-02-13T21:41:51.495Z,1.60
2018-02-13T21:44:19.070Z,1.80
2018-02-13T21:46:46.571Z,1.70
2018-02-13T21:49:14.040Z,1.60
2018-02-13T21:51:41.519Z,1.40
2018-02-13T21:54:09.009Z,1.40
2018-02-13T21:56:36.493Z,1.30
2018-02-13T21:59:03.982Z,1.20
2018-02-13T22:01:31.451Z,1.20
2018-02-13T22:03:58.923Z,1.10
2018-02-13T22:06:26.499Z,1.10
2018-02-13T22:08:54.895Z,1.00
2018-02-13T22:11:22.498Z,1.00
2018-02-13T22:13:49.986Z,1.00
2018-02-13T22:16:17.506Z,0.90
2018-02-13T22:18:44.983Z,0.90
2018-02-13T22:21:12.450Z,0.90
2018-02-13T22:23:39.950Z,0.80
2018-02-13T22:26:07.419Z,0.90
2018-02-13T22:28:34.911Z,0.90
2018-02-13T22:31:02.386Z,0.80
2018-02-13T22:33:29.911Z,0.80
2018-02-13T22:35:58.156Z,0.70
2018-02-13T22:38:25.659Z,0.70
2018-02-13T22:40:53.171Z,0.70
2018-02-13T22:43:20.639Z,0.60
2018-02-13T22:45:48.166Z,0.60
2018-02-13T22:48:15.638Z,0.60
2018-02-13T22:50:43.227Z,0.50
2018-02-13T22:53:11.466Z,0.50
2018-02-13T22:55:39.002Z,0.50
2018-02-13T22:58:06.483Z,0.60
2018-02-13T23:00:34.047Z,0.60
2018-02-13T23:03:01.535Z,0.60
2018-02-13T23:05:29.006Z,0.60
2018-02-13T23:07:56.556Z,0.50
2018-02-13T23:10:24.024Z,0.60
2018-02-13T23:12:51.601Z,0.60
2018-02-13T23:15:19.083Z,0.60
2018-02-13T23:17:46.555Z,0.50
2018-02-13T23:20:14.084Z,0.50
2018-02-13T23:22:41.554Z,0.50
2018-02-13T23:25:09.158Z,0.50
2018-02-13T23:27:36.631Z,0.50
2018-02-13T23:30:04.108Z,0.50
2018-02-13T23:32:31.591Z,0.50
2018-02-13T23:34:59.067Z,0.50
2018-02-13T23:37:26.550Z,0.50
2018-02-13T23:39:54.022Z,0.50
2018-02-13T23:42:21.490Z,0.40
2018-02-13T23:44:48.979Z,0.40
2018-02-13T23:47:16.454Z,0.40
2018-02-13T23:49:44.027Z,0.40
2018-02-13T23:52:11.504Z,0.40
2018-02-13T23:54:39.755Z,0.50
2018-02-13T23:57:07.227Z,0.50
2018-02-13T23:59:34.706Z,0.40
